sensor_id;sensor_type;location;lat;lon;timestamp;P1;durP1;ratioP1;P2;durP2;ratioP2
40717;SDS011;26405;51.850;-2.246;2022-11-15T00:01:35;14.75;;;3.67;;
40717;SDS011;26405;51.850;-2.246;2022-11-15T00:04:02;10.93;;;2.78;;
40717;SDS011;26405;51.850;-2.246;2022-11-15T00:06:27;10.93;;;2.78;;
40717;SDS011;26405;51.850;-2.246;2022-11-15T00:08:53;9.98;;;2.55;;
40717;SDS011;26405;51.850;-2.246;2022-11-15T00:11:18;14.30;;;3.10;;
40717;SDS011;26405;51.850;-2.246;2022-11-15T00:13:43;10.90;;;3.00;;
40717;SDS011;26405;51.850;-2.246;2022-11-15T00:16:09;11.20;;;2.28;;
40717;SDS011;26405;51.850;-2.246;2022-11-15T00:18:34;11.93;;;2.78;;
40717;SDS011;26405;51.850;-2.246;2022-11-15T00:21:07;11.00;;;2.28;;
40717;SDS011;26405;51.850;-2.246;2022-11-15T00:23:32;8.68;;;2.50;;
40717;SDS011;26405;51.850;-2.246;2022-11-15T00:25:58;13.18;;;2.80;;
40717;SDS011;26405;51.850;-2.246;2022-11-15T00:28:24;11.02;;;2.55;;
40717;SDS011;26405;51.850;-2.246;2022-11-15T00:30:49;8.98;;;2.70;;
40717;SDS011;26405;51.850;-2.246;2022-11-15T00:33:15;13.90;;;2.53;;
40717;SDS011;26405;51.850;-2.246;2022-11-15T00:35:40;12.38;;;2.60;;
40717;SDS011;26405;51.850;-2.246;2022-11-15T00:38:05;10.80;;;2.55;;
40717;SDS011;26405;51.850;-2.246;2022-11-15T00:40:31;9.52;;;2.92;;
40717;SDS011;26405;51.850;-2.246;2022-11-15T00:42:56;11.43;;;2.42;;
40717;SDS011;26405;51.850;-2.246;2022-11-15T00:45:21;13.00;;;2.80;;
40717;SDS011;26405;51.850;-2.246;2022-11-15T00:47:47;13.38;;;3.03;;
40717;SDS011;26405;51.850;-2.246;2022-11-15T00:50:12;11.55;;;2.38;;
40717;SDS011;26405;51.850;-2.246;2022-11-15T00:52:37;9.35;;;2.45;;
40717;SDS011;26405;51.850;-2.246;2022-11-15T00:55:03;10.25;;;2.60;;
40717;SDS011;26405;51.850;-2.246;2022-11-15T00:57:28;10.00;;;2.50;;
40717;SDS011;26405;51.850;-2.246;2022-11-15T00:59:53;10.27;;;2.30;;
40717;SDS011;26405;51.850;-2.246;2022-11-15T01:02:19;12.50;;;2.60;;
40717;SDS011;26405;51.850;-2.246;2022-11-15T01:04:44;10.63;;;2.45;;
40717;SDS011;26405;51.850;-2.246;2022-11-15T01:07:10;10.48;;;2.20;;
40717;SDS011;26405;51.850;-2.246;2022-11-15T01:09:35;10.45;;;2.70;;
40717;SDS011;26405;51.850;-2.246;2022-11-15T01:12:00;8.77;;;2.60;;
40717;SDS011;26405;51.850;-2.246;2022-11-15T01:14:25;10.50;;;2.53;;
40717;SDS011;26405;51.850;-2.246;2022-11-15T01:16:51;12.55;;;2.95;;
40717;SDS011;26405;51.850;-2.246;2022-11-15T01:19:16;13.68;;;2.78;;
40717;SDS011;26405;51.850;-2.246;2022-11-15T01:21:41;16.25;;;2.90;;
40717;SDS011;26405;51.850;-2.246;2022-11-15T01:24:07;11.13;;;2.60;;
40717;SDS011;26405;51.850;-2.246;2022-11-15T01:26:33;10.63;;;2.50;;
40717;SDS011;26405;51.850;-2.246;2022-11-15T01:28:58;11.60;;;2.58;;
40717;SDS011;26405;51.850;-2.246;2022-11-15T01:31:23;13.88;;;3.00;;
40717;SDS011;26405;51.850;-2.246;2022-11-15T01:33:48;10.00;;;2.78;;
40717;SDS011;26405;51.850;-2.246;2022-11-15T01:36:18;15.00;;;2.92;;
40717;SDS011;26405;51.850;-2.246;2022-11-15T01:38:44;12.55;;;2.88;;
40717;SDS011;26405;51.850;-2.246;2022-11-15T01:41:16;14.77;;;2.97;;
40717;SDS011;26405;51.850;-2.246;2022-11-15T01:43:42;12.15;;;2.40;;
40717;SDS011;26405;51.850;-2.246;2022-11-15T01:48:51;13.43;;;2.88;;
40717;SDS011;26405;51.850;-2.246;2022-11-15T01:51:19;14.27;;;3.00;;
40717;SDS011;26405;51.850;-2.246;2022-11-15T01:53:45;11.32;;;2.60;;
40717;SDS011;26405;51.850;-2.246;2022-11-15T01:56:13;8.15;;;2.38;;
40717;SDS011;26405;51.850;-2.246;2022-11-15T02:01:04;9.88;;;2.40;;
40717;SDS011;26405;51.850;-2.246;2022-11-15T02:03:52;11.68;;;2.60;;
40717;SDS011;26405;51.850;-2.246;2022-11-15T02:06:14;11.00;;;2.67;;
40717;SDS011;26405;51.850;-2.246;2022-11-15T02:08:40;9.43;;;2.67;;
40717;SDS011;26405;51.850;-2.246;2022-11-15T02:11:08;11.15;;;2.88;;
40717;SDS011;26405;51.850;-2.246;2022-11-15T02:13:34;14.50;;;2.92;;
40717;SDS011;26405;51.850;-2.246;2022-11-15T02:18:35;13.98;;;2.80;;
40717;SDS011;26405;51.850;-2.246;2022-11-15T02:34:05;15.07;;;2.60;;
40717;SDS011;26405;51.850;-2.246;2022-11-15T02:36:44;11.55;;;2.72;;
40717;SDS011;26405;51.850;-2.246;2022-11-15T02:39:23;11.57;;;2.63;;
40717;SDS011;26405;51.850;-2.246;2022-11-15T02:47:00;11.32;;;2.90;;
40717;SDS011;26405;51.850;-2.246;2022-11-15T02:50:00;14.88;;;2.67;;
40717;SDS011;26405;51.850;-2.246;2022-11-15T02:52:24;13.85;;;2.78;;
40717;SDS011;26405;51.850;-2.246;2022-11-15T02:55:00;11.27;;;2.58;;
40717;SDS011;26405;51.850;-2.246;2022-11-15T03:00:13;10.68;;;2.30;;
40717;SDS011;26405;51.850;-2.246;2022-11-15T03:05:30;11.40;;;2.85;;
40717;SDS011;26405;51.850;-2.246;2022-11-15T03:10:28;10.05;;;2.55;;
40717;SDS011;26405;51.850;-2.246;2022-11-15T03:12:58;14.05;;;2.58;;
40717;SDS011;26405;51.850;-2.246;2022-11-15T03:15:31;9.63;;;2.35;;
40717;SDS011;26405;51.850;-2.246;2022-11-15T03:18:15;10.00;;;2.60;;
40717;SDS011;26405;51.850;-2.246;2022-11-15T03:20:41;10.02;;;2.17;;
40717;SDS011;26405;51.850;-2.246;2022-11-15T03:23:08;7.85;;;2.35;;
40717;SDS011;26405;51.850;-2.246;2022-11-15T03:25:34;9.10;;;2.27;;
40717;SDS011;26405;51.850;-2.246;2022-11-15T03:28:01;11.45;;;2.78;;
40717;SDS011;26405;51.850;-2.246;2022-11-15T03:30:28;11.63;;;2.28;;
40717;SDS011;26405;51.850;-2.246;2022-11-15T03:32:56;6.43;;;2.20;;
40717;SDS011;26405;51.850;-2.246;2022-11-15T03:35:22;10.02;;;2.22;;
40717;SDS011;26405;51.850;-2.246;2022-11-15T03:37:59;6.20;;;1.83;;
40717;SDS011;26405;51.850;-2.246;2022-11-15T03:40:29;8.25;;;2.20;;
40717;SDS011;26405;51.850;-2.246;2022-11-15T03:43:06;6.82;;;1.92;;
40717;SDS011;26405;51.850;-2.246;2022-11-15T03:45:46;7.35;;;2.03;;
40717;SDS011;26405;51.850;-2.246;2022-11-15T03:48:16;4.15;;;1.95;;
40717;SDS011;26405;51.850;-2.246;2022-11-15T03:50:42;4.80;;;1.90;;
40717;SDS011;26405;51.850;-2.246;2022-11-15T03:53:08;7.32;;;1.73;;
40717;SDS011;26405;51.850;-2.246;2022-11-15T03:55:34;6.95;;;1.90;;
40717;SDS011;26405;51.850;-2.246;2022-11-15T03:58:00;5.22;;;1.95;;
40717;SDS011;26405;51.850;-2.246;2022-11-15T04:00:25;4.68;;;1.92;;
40717;SDS011;26405;51.850;-2.246;2022-11-15T04:02:51;6.38;;;2.05;;
40717;SDS011;26405;51.850;-2.246;2022-11-15T04:05:16;5.28;;;1.83;;
40717;SDS011;26405;51.850;-2.246;2022-11-15T04:07:41;6.00;;;2.08;;
40717;SDS011;26405;51.850;-2.246;2022-11-15T04:10:07;4.72;;;1.90;;
40717;SDS011;26405;51.850;-2.246;2022-11-15T04:12:37;4.03;;;1.60;;
40717;SDS011;26405;51.850;-2.246;2022-11-15T04:17:44;2.67;;;1.48;;
40717;SDS011;26405;51.850;-2.246;2022-11-15T04:20:20;3.80;;;1.58;;
40717;SDS011;26405;51.850;-2.246;2022-11-15T04:23:06;3.78;;;1.48;;
40717;SDS011;26405;51.850;-2.246;2022-11-15T04:25:51;3.93;;;1.57;;
40717;SDS011;26405;51.850;-2.246;2022-11-15T04:28:16;3.30;;;1.50;;
40717;SDS011;26405;51.850;-2.246;2022-11-15T04:30:42;1.83;;;1.40;;
40717;SDS011;26405;51.850;-2.246;2022-11-15T04:33:07;2.35;;;1.42;;
40717;SDS011;26405;51.850;-2.246;2022-11-15T04:35:32;3.13;;;1.33;;
40717;SDS011;26405;51.850;-2.246;2022-11-15T04:37:58;3.55;;;1.65;;
40717;SDS011;26405;51.850;-2.246;2022-11-15T04:40:23;2.90;;;1.45;;
40717;SDS011;26405;51.850;-2.246;2022-11-15T04:42:49;2.70;;;1.30;;
40717;SDS011;26405;51.850;-2.246;2022-11-15T04:45:14;3.25;;;1.55;;
40717;SDS011;26405;51.850;-2.246;2022-11-15T04:47:39;2.20;;;1.00;;
40717;SDS011;26405;51.850;-2.246;2022-11-15T04:50:05;2.42;;;1.50;;
40717;SDS011;26405;51.850;-2.246;2022-11-15T04:52:30;2.10;;;1.30;;
40717;SDS011;26405;51.850;-2.246;2022-11-15T04:54:55;3.67;;;1.40;;
40717;SDS011;26405;51.850;-2.246;2022-11-15T04:57:21;3.80;;;1.60;;
40717;SDS011;26405;51.850;-2.246;2022-11-15T04:59:46;1.83;;;1.15;;
40717;SDS011;26405;51.850;-2.246;2022-11-15T05:02:11;2.38;;;1.40;;
40717;SDS011;26405;51.850;-2.246;2022-11-15T05:04:37;2.63;;;1.45;;
40717;SDS011;26405;51.850;-2.246;2022-11-15T05:07:02;2.85;;;1.40;;
40717;SDS011;26405;51.850;-2.246;2022-11-15T05:09:29;1.98;;;1.30;;
40717;SDS011;26405;51.850;-2.246;2022-11-15T05:11:54;2.38;;;1.17;;
40717;SDS011;26405;51.850;-2.246;2022-11-15T05:14:19;2.57;;;1.20;;
40717;SDS011;26405;51.850;-2.246;2022-11-15T05:16:44;1.85;;;1.13;;
40717;SDS011;26405;51.850;-2.246;2022-11-15T05:19:10;3.13;;;1.08;;
40717;SDS011;26405;51.850;-2.246;2022-11-15T05:21:35;2.25;;;1.30;;
40717;SDS011;26405;51.850;-2.246;2022-11-15T05:24:01;1.67;;;0.90;;
40717;SDS011;26405;51.850;-2.246;2022-11-15T05:26:27;1.60;;;1.13;;
40717;SDS011;26405;51.850;-2.246;2022-11-15T05:28:55;1.95;;;1.35;;
40717;SDS011;26405;51.850;-2.246;2022-11-15T05:31:21;1.17;;;1.02;;
40717;SDS011;26405;51.850;-2.246;2022-11-15T05:33:46;1.02;;;0.90;;
40717;SDS011;26405;51.850;-2.246;2022-11-15T05:36:13;2.35;;;1.25;;
40717;SDS011;26405;51.850;-2.246;2022-11-15T05:38:39;2.03;;;0.80;;
40717;SDS011;26405;51.850;-2.246;2022-11-15T05:41:06;1.60;;;1.00;;
40717;SDS011;26405;51.850;-2.246;2022-11-15T05:43:35;0.88;;;0.80;;
40717;SDS011;26405;51.850;-2.246;2022-11-15T05:46:02;1.40;;;1.08;;
40717;SDS011;26405;51.850;-2.246;2022-11-15T05:48:29;4.05;;;1.05;;
40717;SDS011;26405;51.850;-2.246;2022-11-15T05:50:54;1.95;;;0.95;;
40717;SDS011;26405;51.850;-2.246;2022-11-15T05:53:22;1.10;;;1.10;;
40717;SDS011;26405;51.850;-2.246;2022-11-15T05:55:52;1.58;;;0.90;;
40717;SDS011;26405;51.850;-2.246;2022-11-15T05:58:18;3.92;;;1.20;;
40717;SDS011;26405;51.850;-2.246;2022-11-15T06:00:44;2.30;;;0.80;;
40717;SDS011;26405;51.850;-2.246;2022-11-15T06:03:09;2.13;;;1.13;;
40717;SDS011;26405;51.850;-2.246;2022-11-15T06:05:35;1.05;;;0.90;;
40717;SDS011;26405;51.850;-2.246;2022-11-15T06:08:01;0.90;;;0.90;;
40717;SDS011;26405;51.850;-2.246;2022-11-15T06:10:26;0.93;;;0.93;;
40717;SDS011;26405;51.850;-2.246;2022-11-15T06:13:00;0.80;;;0.80;;
40717;SDS011;26405;51.850;-2.246;2022-11-15T06:15:26;3.58;;;1.20;;
40717;SDS011;26405;51.850;-2.246;2022-11-15T06:17:51;3.20;;;1.10;;
40717;SDS011;26405;51.850;-2.246;2022-11-15T06:20:17;2.78;;;1.08;;
40717;SDS011;26405;51.850;-2.246;2022-11-15T06:22:42;1.05;;;1.05;;
40717;SDS011;26405;51.850;-2.246;2022-11-15T06:25:08;0.75;;;0.75;;
40717;SDS011;26405;51.850;-2.246;2022-11-15T06:27:33;1.83;;;1.08;;
40717;SDS011;26405;51.850;-2.246;2022-11-15T06:29:58;0.98;;;0.98;;
40717;SDS011;26405;51.850;-2.246;2022-11-15T06:32:23;1.10;;;1.00;;
40717;SDS011;26405;51.850;-2.246;2022-11-15T06:34:49;1.23;;;0.90;;
40717;SDS011;26405;51.850;-2.246;2022-11-15T06:37:14;2.15;;;1.45;;
40717;SDS011;26405;51.850;-2.246;2022-11-15T06:39:40;1.00;;;1.00;;
40717;SDS011;26405;51.850;-2.246;2022-11-15T06:42:05;1.02;;;0.90;;
40717;SDS011;26405;51.850;-2.246;2022-11-15T06:44:30;1.27;;;1.17;;
40717;SDS011;26405;51.850;-2.246;2022-11-15T06:46:55;1.02;;;1.02;;
40717;SDS011;26405;51.850;-2.246;2022-11-15T06:49:20;1.38;;;1.05;;
40717;SDS011;26405;51.850;-2.246;2022-11-15T06:51:46;1.08;;;0.90;;
40717;SDS011;26405;51.850;-2.246;2022-11-15T06:54:11;2.65;;;1.10;;
40717;SDS011;26405;51.850;-2.246;2022-11-15T06:56:36;1.20;;;1.00;;
40717;SDS011;26405;51.850;-2.246;2022-11-15T06:59:01;1.77;;;1.27;;
40717;SDS011;26405;51.850;-2.246;2022-11-15T07:01:27;2.35;;;0.98;;
40717;SDS011;26405;51.850;-2.246;2022-11-15T07:03:52;2.20;;;1.00;;
40717;SDS011;26405;51.850;-2.246;2022-11-15T07:06:17;1.65;;;0.82;;
40717;SDS011;26405;51.850;-2.246;2022-11-15T07:08:42;1.10;;;1.00;;
40717;SDS011;26405;51.850;-2.246;2022-11-15T07:11:08;1.52;;;0.88;;
40717;SDS011;26405;51.850;-2.246;2022-11-15T07:13:34;0.95;;;0.88;;
40717;SDS011;26405;51.850;-2.246;2022-11-15T07:16:06;1.20;;;1.10;;
40717;SDS011;26405;51.850;-2.246;2022-11-15T07:18:35;2.88;;;0.90;;
40717;SDS011;26405;51.850;-2.246;2022-11-15T07:21:04;1.35;;;1.20;;
40717;SDS011;26405;51.850;-2.246;2022-11-15T07:23:30;0.90;;;0.90;;
40717;SDS011;26405;51.850;-2.246;2022-11-15T07:25:58;2.47;;;1.13;;
40717;SDS011;26405;51.850;-2.246;2022-11-15T07:28:25;1.05;;;0.93;;
40717;SDS011;26405;51.850;-2.246;2022-11-15T07:30:50;1.02;;;1.02;;
40717;SDS011;26405;51.850;-2.246;2022-11-15T07:33:15;3.47;;;1.20;;
40717;SDS011;26405;51.850;-2.246;2022-11-15T07:35:41;1.13;;;0.95;;
40717;SDS011;26405;51.850;-2.246;2022-11-15T07:38:07;1.95;;;1.00;;
40717;SDS011;26405;51.850;-2.246;2022-11-15T07:40:33;1.48;;;1.05;;
40717;SDS011;26405;51.850;-2.246;2022-11-15T07:43:02;1.00;;;1.00;;
40717;SDS011;26405;51.850;-2.246;2022-11-15T07:45:31;1.17;;;1.00;;
40717;SDS011;26405;51.850;-2.246;2022-11-15T07:47:58;1.35;;;0.95;;
40717;SDS011;26405;51.850;-2.246;2022-11-15T07:50:23;1.55;;;1.15;;
40717;SDS011;26405;51.850;-2.246;2022-11-15T07:52:56;1.25;;;1.05;;
40717;SDS011;26405;51.850;-2.246;2022-11-15T07:55:21;3.03;;;0.93;;
40717;SDS011;26405;51.850;-2.246;2022-11-15T07:57:48;2.15;;;1.42;;
40717;SDS011;26405;51.850;-2.246;2022-11-15T08:00:13;1.00;;;1.00;;
40717;SDS011;26405;51.850;-2.246;2022-11-15T08:02:39;1.13;;;0.85;;
40717;SDS011;26405;51.850;-2.246;2022-11-15T08:05:04;1.67;;;1.15;;
40717;SDS011;26405;51.850;-2.246;2022-11-15T08:07:30;1.27;;;1.17;;
40717;SDS011;26405;51.850;-2.246;2022-11-15T08:09:55;1.80;;;1.27;;
40717;SDS011;26405;51.850;-2.246;2022-11-15T08:12:21;2.20;;;1.25;;
40717;SDS011;26405;51.850;-2.246;2022-11-15T08:14:46;1.92;;;0.98;;
40717;SDS011;26405;51.850;-2.246;2022-11-15T08:17:11;1.27;;;1.17;;
40717;SDS011;26405;51.850;-2.246;2022-11-15T08:19:37;2.05;;;1.20;;
40717;SDS011;26405;51.850;-2.246;2022-11-15T08:22:04;1.45;;;1.10;;
40717;SDS011;26405;51.850;-2.246;2022-11-15T08:24:30;1.30;;;1.10;;
40717;SDS011;26405;51.850;-2.246;2022-11-15T08:26:55;1.83;;;0.93;;
40717;SDS011;26405;51.850;-2.246;2022-11-15T08:29:20;3.47;;;1.13;;
40717;SDS011;26405;51.850;-2.246;2022-11-15T08:31:46;1.00;;;1.00;;
40717;SDS011;26405;51.850;-2.246;2022-11-15T08:34:11;1.42;;;1.30;;
40717;SDS011;26405;51.850;-2.246;2022-11-15T08:36:36;1.30;;;1.10;;
40717;SDS011;26405;51.850;-2.246;2022-11-15T08:39:02;0.98;;;0.98;;
40717;SDS011;26405;51.850;-2.246;2022-11-15T08:41:34;0.80;;;0.80;;
40717;SDS011;26405;51.850;-2.246;2022-11-15T08:44:01;1.10;;;0.80;;
40717;SDS011;26405;51.850;-2.246;2022-11-15T08:46:26;1.15;;;1.08;;
40717;SDS011;26405;51.850;-2.246;2022-11-15T08:48:51;1.85;;;0.93;;
40717;SDS011;26405;51.850;-2.246;2022-11-15T08:51:17;0.80;;;0.80;;
40717;SDS011;26405;51.850;-2.246;2022-11-15T08:53:42;0.75;;;0.75;;
40717;SDS011;26405;51.850;-2.246;2022-11-15T08:56:08;1.02;;;0.90;;
40717;SDS011;26405;51.850;-2.246;2022-11-15T08:58:34;0.90;;;0.90;;
40717;SDS011;26405;51.850;-2.246;2022-11-15T09:00:59;0.77;;;0.77;;
40717;SDS011;26405;51.850;-2.246;2022-11-15T09:03:25;1.73;;;1.10;;
40717;SDS011;26405;51.850;-2.246;2022-11-15T09:05:59;1.30;;;1.20;;
40717;SDS011;26405;51.850;-2.246;2022-11-15T09:08:25;3.28;;;0.90;;
40717;SDS011;26405;51.850;-2.246;2022-11-15T09:10:50;1.27;;;1.08;;
40717;SDS011;26405;51.850;-2.246;2022-11-15T09:13:16;2.08;;;1.00;;
40717;SDS011;26405;51.850;-2.246;2022-11-15T09:15:44;0.90;;;0.90;;
40717;SDS011;26405;51.850;-2.246;2022-11-15T09:18:09;0.88;;;0.80;;
40717;SDS011;26405;51.850;-2.246;2022-11-15T09:20:34;1.08;;;1.08;;
40717;SDS011;26405;51.850;-2.246;2022-11-15T09:23:01;0.95;;;0.95;;
40717;SDS011;26405;51.850;-2.246;2022-11-15T09:25:26;2.38;;;1.40;;
40717;SDS011;26405;51.850;-2.246;2022-11-15T09:27:52;4.60;;;1.30;;
40717;SDS011;26405;51.850;-2.246;2022-11-15T09:30:17;1.40;;;1.30;;
40717;SDS011;26405;51.850;-2.246;2022-11-15T09:32:43;1.70;;;1.30;;
40717;SDS011;26405;51.850;-2.246;2022-11-15T09:35:08;2.22;;;1.30;;
40717;SDS011;26405;51.850;-2.246;2022-11-15T09:37:33;2.67;;;2.20;;
40717;SDS011;26405;51.850;-2.246;2022-11-15T09:39:58;2.15;;;1.20;;
40717;SDS011;26405;51.850;-2.246;2022-11-15T09:42:30;1.83;;;1.30;;
40717;SDS011;26405;51.850;-2.246;2022-11-15T09:47:59;3.13;;;2.30;;
40717;SDS011;26405;51.850;-2.246;2022-11-15T09:50:40;1.30;;;1.27;;
40717;SDS011;26405;51.850;-2.246;2022-11-15T09:53:11;3.90;;;1.27;;
40717;SDS011;26405;51.850;-2.246;2022-11-15T09:55:43;0.77;;;0.77;;
40717;SDS011;26405;51.850;-2.246;2022-11-15T09:58:18;1.85;;;0.98;;
40717;SDS011;26405;51.850;-2.246;2022-11-15T10:00:47;1.60;;;1.13;;
40717;SDS011;26405;51.850;-2.246;2022-11-15T10:03:14;1.38;;;1.27;;
40717;SDS011;26405;51.850;-2.246;2022-11-15T10:05:42;2.67;;;1.27;;
40717;SDS011;26405;51.850;-2.246;2022-11-15T10:08:13;1.50;;;1.38;;
40717;SDS011;26405;51.850;-2.246;2022-11-15T10:10:43;2.55;;;2.30;;
40717;SDS011;26405;51.850;-2.246;2022-11-15T10:13:28;1.85;;;1.45;;
40717;SDS011;26405;51.850;-2.246;2022-11-15T10:15:57;2.38;;;1.25;;
40717;SDS011;26405;51.850;-2.246;2022-11-15T10:18:35;5.18;;;2.15;;
40717;SDS011;26405;51.850;-2.246;2022-11-15T10:21:13;3.58;;;1.55;;
40717;SDS011;26405;51.850;-2.246;2022-11-15T10:23:40;2.53;;;1.80;;
40717;SDS011;26405;51.850;-2.246;2022-11-15T10:26:07;3.65;;;1.40;;
40717;SDS011;26405;51.850;-2.246;2022-11-15T10:28:33;3.72;;;1.50;;
40717;SDS011;26405;51.850;-2.246;2022-11-15T10:30:59;3.93;;;1.70;;
40717;SDS011;26405;51.850;-2.246;2022-11-15T10:33:34;3.67;;;1.58;;
40717;SDS011;26405;51.850;-2.246;2022-11-15T10:41:16;7.53;;;3.25;;
40717;SDS011;26405;51.850;-2.246;2022-11-15T10:43:41;9.40;;;4.10;;
40717;SDS011;26405;51.850;-2.246;2022-11-15T10:46:20;4.65;;;2.30;;
40717;SDS011;26405;51.850;-2.246;2022-11-15T10:48:45;4.15;;;2.03;;
40717;SDS011;26405;51.850;-2.246;2022-11-15T10:51:27;5.97;;;2.77;;
40717;SDS011;26405;51.850;-2.246;2022-11-15T10:53:53;3.00;;;1.90;;
40717;SDS011;26405;51.850;-2.246;2022-11-15T10:56:20;4.65;;;2.10;;
40717;SDS011;26405;51.850;-2.246;2022-11-15T10:58:50;3.90;;;1.93;;
40717;SDS011;26405;51.850;-2.246;2022-11-15T11:01:23;4.32;;;1.95;;
40717;SDS011;26405;51.850;-2.246;2022-11-15T11:04:08;3.90;;;2.10;;
40717;SDS011;26405;51.850;-2.246;2022-11-15T11:06:53;8.63;;;3.47;;
40717;SDS011;26405;51.850;-2.246;2022-11-15T11:09:29;3.47;;;2.22;;
40717;SDS011;26405;51.850;-2.246;2022-11-15T11:11:58;3.00;;;2.05;;
40717;SDS011;26405;51.850;-2.246;2022-11-15T11:16:54;1.95;;;1.48;;
40717;SDS011;26405;51.850;-2.246;2022-11-15T11:22:01;4.05;;;2.20;;
40717;SDS011;26405;51.850;-2.246;2022-11-15T11:24:49;5.30;;;2.13;;
40717;SDS011;26405;51.850;-2.246;2022-11-15T11:30:17;2.10;;;1.80;;
40717;SDS011;26405;51.850;-2.246;2022-11-15T11:32:59;5.63;;;2.47;;
40717;SDS011;26405;51.850;-2.246;2022-11-15T11:35:34;6.70;;;2.70;;
40717;SDS011;26405;51.850;-2.246;2022-11-15T11:40:37;6.75;;;2.70;;
40717;SDS011;26405;51.850;-2.246;2022-11-15T11:51:03;5.82;;;2.78;;
40717;SDS011;26405;51.850;-2.246;2022-11-15T11:53:31;8.50;;;2.92;;
40717;SDS011;26405;51.850;-2.246;2022-11-15T11:56:04;6.32;;;2.95;;
40717;SDS011;26405;51.850;-2.246;2022-11-15T12:02:20;10.10;;;3.10;;
40717;SDS011;26405;51.850;-2.246;2022-11-15T12:04:51;4.70;;;2.70;;
40717;SDS011;26405;51.850;-2.246;2022-11-15T12:07:25;7.03;;;3.05;;
40717;SDS011;26405;51.850;-2.246;2022-11-15T12:10:03;8.38;;;3.53;;
40717;SDS011;26405;51.850;-2.246;2022-11-15T12:12:41;10.40;;;3.53;;
40717;SDS011;26405;51.850;-2.246;2022-11-15T12:17:34;9.13;;;2.95;;
40717;SDS011;26405;51.850;-2.246;2022-11-15T12:20:06;6.65;;;2.97;;
40717;SDS011;26405;51.850;-2.246;2022-11-15T12:27:38;11.40;;;2.85;;
40717;SDS011;26405;51.850;-2.246;2022-11-15T12:30:13;8.27;;;2.85;;
40717;SDS011;26405;51.850;-2.246;2022-11-15T12:32:39;10.48;;;3.30;;
40717;SDS011;26405;51.850;-2.246;2022-11-15T12:42:41;8.60;;;2.67;;
40717;SDS011;26405;51.850;-2.246;2022-11-15T12:47:51;6.63;;;2.50;;
40717;SDS011;26405;51.850;-2.246;2022-11-15T12:50:16;6.57;;;2.20;;
40717;SDS011;26405;51.850;-2.246;2022-11-15T12:53:25;5.32;;;2.25;;
40717;SDS011;26405;51.850;-2.246;2022-11-15T12:56:09;5.57;;;2.40;;
40717;SDS011;26405;51.850;-2.246;2022-11-15T12:58:52;8.55;;;2.50;;
40717;SDS011;26405;51.850;-2.246;2022-11-15T13:09:06;3.75;;;1.75;;
40717;SDS011;26405;51.850;-2.246;2022-11-15T13:11:50;2.58;;;1.60;;
40717;SDS011;26405;51.850;-2.246;2022-11-15T13:15:00;5.03;;;2.00;;
40717;SDS011;26405;51.850;-2.246;2022-11-15T13:17:00;5.97;;;2.33;;
40717;SDS011;26405;51.850;-2.246;2022-11-15T13:19:26;5.18;;;2.28;;
40717;SDS011;26405;51.850;-2.246;2022-11-15T13:21:51;4.97;;;1.98;;
40717;SDS011;26405;51.850;-2.246;2022-11-15T13:24:37;5.72;;;2.20;;
40717;SDS011;26405;51.850;-2.246;2022-11-15T13:27:09;4.75;;;2.20;;
40717;SDS011;26405;51.850;-2.246;2022-11-15T13:29:35;5.93;;;2.15;;
40717;SDS011;26405;51.850;-2.246;2022-11-15T13:32:01;6.95;;;2.08;;
40717;SDS011;26405;51.850;-2.246;2022-11-15T13:34:27;3.33;;;1.90;;
40717;SDS011;26405;51.850;-2.246;2022-11-15T13:36:53;6.05;;;2.00;;
40717;SDS011;26405;51.850;-2.246;2022-11-15T13:39:32;4.95;;;1.73;;
40717;SDS011;26405;51.850;-2.246;2022-11-15T13:41:57;6.05;;;1.70;;
40717;SDS011;26405;51.850;-2.246;2022-11-15T13:44:29;2.65;;;1.55;;
40717;SDS011;26405;51.850;-2.246;2022-11-15T13:47:06;4.63;;;1.90;;
40717;SDS011;26405;51.850;-2.246;2022-11-15T13:49:32;4.20;;;1.80;;
40717;SDS011;26405;51.850;-2.246;2022-11-15T13:51:58;5.68;;;2.22;;
40717;SDS011;26405;51.850;-2.246;2022-11-15T13:54:31;6.07;;;2.00;;
40717;SDS011;26405;51.850;-2.246;2022-11-15T13:59:31;5.35;;;2.10;;
40717;SDS011;26405;51.850;-2.246;2022-11-15T14:01:59;4.63;;;1.98;;
40717;SDS011;26405;51.850;-2.246;2022-11-15T14:04:26;7.53;;;2.60;;
40717;SDS011;26405;51.850;-2.246;2022-11-15T14:06:58;8.60;;;2.33;;
40717;SDS011;26405;51.850;-2.246;2022-11-15T14:09:34;8.90;;;2.78;;
40717;SDS011;26405;51.850;-2.246;2022-11-15T14:12:01;7.00;;;2.45;;
40717;SDS011;26405;51.850;-2.246;2022-11-15T14:14:27;7.03;;;2.38;;
40717;SDS011;26405;51.850;-2.246;2022-11-15T14:16:57;8.93;;;2.43;;
40717;SDS011;26405;51.850;-2.246;2022-11-15T14:24:32;11.45;;;2.72;;
40717;SDS011;26405;51.850;-2.246;2022-11-15T14:26:57;6.95;;;2.47;;
40717;SDS011;26405;51.850;-2.246;2022-11-15T14:29:40;8.07;;;2.40;;
40717;SDS011;26405;51.850;-2.246;2022-11-15T14:32:12;9.07;;;2.70;;
40717;SDS011;26405;51.850;-2.246;2022-11-15T14:34:37;11.20;;;2.55;;
40717;SDS011;26405;51.850;-2.246;2022-11-15T14:37:03;8.57;;;2.30;;
40717;SDS011;26405;51.850;-2.246;2022-11-15T14:39:28;5.43;;;2.40;;
40717;SDS011;26405;51.850;-2.246;2022-11-15T14:41:53;10.77;;;3.67;;
40717;SDS011;26405;51.850;-2.246;2022-11-15T14:44:18;7.70;;;2.50;;
40717;SDS011;26405;51.850;-2.246;2022-11-15T14:46:45;10.20;;;3.40;;
40717;SDS011;26405;51.850;-2.246;2022-11-15T14:49:11;8.75;;;3.22;;
40717;SDS011;26405;51.850;-2.246;2022-11-15T14:51:38;9.70;;;3.10;;
40717;SDS011;26405;51.850;-2.246;2022-11-15T14:54:03;12.27;;;2.63;;
40717;SDS011;26405;51.850;-2.246;2022-11-15T14:56:28;9.27;;;2.90;;
40717;SDS011;26405;51.850;-2.246;2022-11-15T14:58:53;11.38;;;2.80;;
40717;SDS011;26405;51.850;-2.246;2022-11-15T15:01:21;10.63;;;2.70;;
40717;SDS011;26405;51.850;-2.246;2022-11-15T15:03:48;7.78;;;2.53;;
40717;SDS011;26405;51.850;-2.246;2022-11-15T15:06:13;10.77;;;3.10;;
40717;SDS011;26405;51.850;-2.246;2022-11-15T15:08:39;10.02;;;2.88;;
40717;SDS011;26405;51.850;-2.246;2022-11-15T15:11:08;13.45;;;3.88;;
40717;SDS011;26405;51.850;-2.246;2022-11-15T15:13:35;13.38;;;3.55;;
40717;SDS011;26405;51.850;-2.246;2022-11-15T15:16:00;14.57;;;4.55;;
40717;SDS011;26405;51.850;-2.246;2022-11-15T15:18:26;14.48;;;3.88;;
40717;SDS011;26405;51.850;-2.246;2022-11-15T15:20:55;16.15;;;4.68;;
40717;SDS011;26405;51.850;-2.246;2022-11-15T15:23:21;11.35;;;3.05;;
40717;SDS011;26405;51.850;-2.246;2022-11-15T15:25:48;8.57;;;3.03;;
40717;SDS011;26405;51.850;-2.246;2022-11-15T15:28:14;11.70;;;3.35;;
40717;SDS011;26405;51.850;-2.246;2022-11-15T15:30:39;12.40;;;3.40;;
40717;SDS011;26405;51.850;-2.246;2022-11-15T15:33:04;11.98;;;3.72;;
40717;SDS011;26405;51.850;-2.246;2022-11-15T15:35:30;14.00;;;3.00;;
40717;SDS011;26405;51.850;-2.246;2022-11-15T15:37:57;11.80;;;2.92;;
40717;SDS011;26405;51.850;-2.246;2022-11-15T15:40:22;18.30;;;3.38;;
40717;SDS011;26405;51.850;-2.246;2022-11-15T15:42:48;13.97;;;3.80;;
40717;SDS011;26405;51.850;-2.246;2022-11-15T15:45:14;11.05;;;3.15;;
40717;SDS011;26405;51.850;-2.246;2022-11-15T15:47:40;13.95;;;3.25;;
40717;SDS011;26405;51.850;-2.246;2022-11-15T15:50:14;15.80;;;3.78;;
40717;SDS011;26405;51.850;-2.246;2022-11-15T15:52:41;14.80;;;3.67;;
40717;SDS011;26405;51.850;-2.246;2022-11-15T15:55:06;14.75;;;4.53;;
40717;SDS011;26405;51.850;-2.246;2022-11-15T15:57:32;16.60;;;5.15;;
40717;SDS011;26405;51.850;-2.246;2022-11-15T15:59:57;12.47;;;4.13;;
40717;SDS011;26405;51.850;-2.246;2022-11-15T16:02:22;15.57;;;4.70;;
40717;SDS011;26405;51.850;-2.246;2022-11-15T16:04:48;11.60;;;3.50;;
40717;SDS011;26405;51.850;-2.246;2022-11-15T16:07:16;14.85;;;4.20;;
40717;SDS011;26405;51.850;-2.246;2022-11-15T16:09:42;12.50;;;4.07;;
40717;SDS011;26405;51.850;-2.246;2022-11-15T16:12:26;11.68;;;3.20;;
40717;SDS011;26405;51.850;-2.246;2022-11-15T16:14:51;12.13;;;3.53;;
40717;SDS011;26405;51.850;-2.246;2022-11-15T16:17:23;16.27;;;3.22;;